CZ-0133 weather

Křinec Airstrip
Křinec, Czechia

Public forecast

Using degrees Celsius for public forecast. Weather courtesy of forecast.io.

METAR (pilot weather report)

Closest report is Čáslav Air Base, 21.3 nm (39.5 km) SSE. Retrieved 2019/05/25 22:00 UTC (59 minutes ago):

LKCV 252200Z 23003KT 190V250 CAVOK 13/12 Q1015 NOSIG RMK BLU BLU

TAF (pilot weather forecast)

Closest forecast is Čáslav Air Base, 21.3 nm (39.5 km) SSE. Retrieved 2019/05/25 18:05 UTC (5 hours ago):

TAF LKCV 251700Z 2518/2618 VRB02KT CAVOK PROB40 TEMPO 2518/2520 32016G26KT 7000 SHRA SCT035TCU BECMG 2610/2612 26006KT PROB30 TEMPO 2612/2618 7000 SHRA SCT035TCU